Time;durP1;ratioP1;P1;durP2;ratioP2;P2;SDS_P1;SDS_P2;PMS_P1;PMS_P2;Temp;Humidity;BMP_temperature;BMP_pressure;BME280_temperature;BME280_humidity;BME280_pressure;Samples;Min_cycle;Max_cycle;Signal;HPM_P1;HPM_P2
2024/04/05 00:00:23;;;;;;;;;;;;;;;;;;5096682;28;20378;-66
2024/04/05 00:02:48;;;;;;;;;;;;;;;;;;5102988;28;19908;-66
2024/04/05 00:05:14;;;;;;;;;;;;;;;;;;5092908;28;19908;-65
2024/04/05 00:07:40;;;;;;;;;;;;;;;;;;5079864;28;20296;-66
2024/04/05 00:10:09;;;;;;;;;;;;;;;;;;5085972;28;19912;-65
2024/04/05 00:12:35;;;;;;;;;;;;;;;;;;5090067;28;20361;-66
2024/04/05 00:15:01;;;;;;;;;;;;;;;;;;5085044;28;19919;-66
2024/04/05 00:17:27;;;;;;;;;;;;;;;;;;5092243;28;20061;-65
2024/04/05 00:19:53;;;;;;;;;;;;;;;;;;5091034;28;19916;-66
2024/04/05 00:22:19;;;;;;;;;;;;;;;;;;5091999;28;19911;-65
2024/04/05 00:24:44;;;;;;;;;;;;;;;;;;5092413;28;20011;-66
2024/04/05 00:27:10;;;;;;;;;;;;;;;;;;5092101;28;19950;-66
2024/04/05 00:29:36;;;;;;;;;;;;;;;;;;5090591;28;19919;-66
2024/04/05 00:32:02;;;;;;;;;;;;;;;;;;5091629;28;20428;-66
2024/04/05 00:34:28;;;;;;;;;;;;;;;;;;5085656;28;19908;-66
2024/04/05 00:36:54;;;;;;;;;;;;;;;;;;5090625;28;19916;-66
2024/04/05 00:39:20;;;;;;;;;;;;;;;;;;5087212;28;19915;-66
2024/04/05 00:41:45;;;;;;;;;;;;;;;;;;5088360;28;20405;-66
2024/04/05 00:44:11;;;;;;;;;;;;;;;;;;5082716;28;20007;-65
2024/04/05 00:46:37;;;;;;;;;;;;;;;;;;5088709;28;19919;-67
2024/04/05 00:49:03;;;;;;;;;;;;;;;;;;5083761;28;19918;-66
2024/04/05 00:51:29;;;;;;;;;;;;;;;;;;5087494;28;20008;-66
2024/04/05 00:53:55;;;;;;;;;;;;;;;;;;5084952;28;19943;-67
2024/04/05 00:56:20;;;;;;;;;;;;;;;;;;5086063;28;19919;-66
2024/04/05 00:58:46;;;;;;;;;;;;;;;;;;5086056;28;20505;-67
2024/04/05 01:01:12;;;;;;;;;;;;;;;;;;5084875;28;20157;-66
2024/04/05 01:03:38;;;;;;;;;;;;;;;;;;5086238;28;19998;-67
2024/04/05 01:06:04;;;;;;;;;;;;;;;;;;5085709;28;19914;-66
2024/04/05 01:08:30;;;;;;;;;;;;;;;;;;5088320;28;19970;-66
2024/04/05 01:10:56;;;;;;;;;;;;;;;;;;5091053;28;19908;-66
2024/04/05 01:13:22;;;;;;;;;;;;;;;;;;5091054;28;19948;-66
2024/04/05 01:15:47;;;;;;;;;;;;;;;;;;5090872;28;19912;-67
2024/04/05 01:18:13;;;;;;;;;;;;;;;;;;5090530;28;19962;-65
2024/04/05 01:20:39;;;;;;;;;;;;;;;;;;5091262;28;19914;-66
2024/04/05 01:23:05;;;;;;;;;;;;;;;;;;5090153;28;19915;-66
2024/04/05 01:25:31;;;;;;;;;;;;;;;;;;5091132;28;19912;-64
2024/04/05 01:27:57;;;;;;;;;;;;;;;;;;5090854;28;19952;-65
2024/04/05 01:30:23;;;;;;;;;;;;;;;;;;5091462;28;19919;-66
2024/04/05 01:32:48;;;;;;;;;;;;;;;;;;5090572;28;19915;-66
2024/04/05 01:35:14;;;;;;;;;;;;;;;;;;5084937;28;19991;-66
2024/04/05 01:37:40;;;;;;;;;;;;;;;;;;5089644;28;19908;-66
2024/04/05 01:40:06;;;;;;;;;;;;;;;;;;5090917;28;20003;-65
2024/04/05 01:42:32;;;;;;;;;;;;;;;;;;5090599;28;20289;-66
2024/04/05 01:44:58;;;;;;;;;;;;;;;;;;5088757;28;19951;-65
2024/04/05 01:47:24;;;;;;;;;;;;;;;;;;5091597;28;20022;-66
2024/04/05 01:49:49;;;;;;;;;;;;;;;;;;5100824;28;20497;-65
2024/04/05 01:52:15;;;;;;;;;;;;;;;;;;5092014;28;19930;-66
2024/04/05 01:54:41;;;;;;;;;;;;;;;;;;5097119;28;19998;-65
2024/04/05 01:57:07;;;;;;;;;;;;;;;;;;5093804;28;19916;-65
2024/04/05 01:59:33;;;;;;;;;;;;;;;;;;5103128;28;20378;-66
2024/04/05 02:01:59;;;;;;;;;;;;;;;;;;5097493;28;19915;-65
2024/04/05 02:04:25;;;;;;;;;;;;;;;;;;5099265;28;20003;-65
2024/04/05 02:06:50;;;;;;;;;;;;;;;;;;5091414;28;19915;-65
2024/04/05 02:09:16;;;;;;;;;;;;;;;;;;5094233;28;19912;-65
2024/04/05 02:11:42;;;;;;;;;;;;;;;;;;5092646;28;19908;-65
2024/04/05 02:14:08;;;;;;;;;;;;;;;;;;5087237;28;19908;-65
2024/04/05 02:16:34;;;;;;;;;;;;;;;;;;5095402;28;20377;-65
2024/04/05 02:19:00;;;;;;;;;;;;;;;;;;5089642;28;19916;-65
2024/04/05 02:21:25;;;;;;;;;;;;;;;;;;5082342;28;19908;-65
2024/04/05 02:23:52;;;;;;;;;;;;;;;;;;5089492;28;19985;-65
2024/04/05 02:26:18;;;;;;;;;;;;;;;;;;5084797;28;20448;-65
2024/04/05 02:28:44;;;;;;;;;;;;;;;;;;5081130;28;19909;-65
2024/04/05 02:31:10;;;;;;;;;;;;;;;;;;5088518;28;20392;-63
2024/04/05 02:33:36;;;;;;;;;;;;;;;;;;5089959;28;19908;-65
2024/04/05 02:36:02;;;;;;;;;;;;;;;;;;5089547;28;19916;-65
2024/04/05 02:38:28;;;;;;;;;;;;;;;;;;5089736;28;20298;-65
2024/04/05 02:40:54;;;;;;;;;;;;;;;;;;5089061;28;19989;-65
2024/04/05 02:43:20;;;;;;;;;;;;;;;;;;5090619;28;19927;-65
2024/04/05 02:45:46;;;;;;;;;;;;;;;;;;5093559;28;19915;-65
2024/04/05 02:48:11;;;;;;;;;;;;;;;;;;5093313;28;20027;-64
2024/04/05 02:50:38;;;;;;;;;;;;;;;;;;5093433;28;19983;-65
2024/04/05 02:53:03;;;;;;;;;;;;;;;;;;5092684;28;19966;-65
2024/04/05 02:55:29;;;;;;;;;;;;;;;;;;5093003;28;19948;-65
2024/04/05 02:57:55;;;;;;;;;;;;;;;;;;5093518;28;19908;-64
2024/04/05 03:00:21;;;;;;;;;;;;;;;;;;5093279;28;20337;-66
2024/04/05 03:02:47;;;;;;;;;;;;;;;;;;5084895;28;19916;-66
2024/04/05 03:05:13;;;;;;;;;;;;;;;;;;5091706;28;19950;-65
2024/04/05 03:07:39;;;;;;;;;;;;;;;;;;5092988;28;19912;-64
2024/04/05 03:10:05;;;;;;;;;;;;;;;;;;5093019;28;19908;-64
2024/04/05 03:12:30;;;;;;;;;;;;;;;;;;5091285;28;19916;-65
2024/04/05 03:14:56;;;;;;;;;;;;;;;;;;5092994;28;19938;-65
2024/04/05 03:17:22;;;;;;;;;;;;;;;;;;5091598;28;19912;-65
2024/04/05 03:19:48;;;;;;;;;;;;;;;;;;5088885;28;20394;-65
2024/04/05 03:22:14;;;;;;;;;;;;;;;;;;5087564;28;19923;-66
2024/04/05 03:24:40;;;;;;;;;;;;;;;;;;5088975;28;19992;-65
2024/04/05 03:27:06;;;;;;;;;;;;;;;;;;5088709;28;20396;-65
2024/04/05 03:29:32;;;;;;;;;;;;;;;;;;5080085;28;20017;-65
2024/04/05 03:31:58;;;;;;;;;;;;;;;;;;5088904;28;20343;-66
2024/04/05 03:34:24;;;;;;;;;;;;;;;;;;5087282;28;19912;-65
2024/04/05 03:36:49;;;;;;;;;;;;;;;;;;5087221;28;20403;-66
2024/04/05 03:39:15;;;;;;;;;;;;;;;;;;5082511;28;19931;-65
2024/04/05 03:41:41;;;;;;;;;;;;;;;;;;5085822;28;19969;-65
2024/04/05 03:44:08;;;;;;;;;;;;;;;;;;5084785;28;20129;-64
2024/04/05 03:46:35;;;;;;;;;;;;;;;;;;5099728;28;19942;-66
2024/04/05 03:49:02;;;;;;;;;;;;;;;;;;5097661;28;20300;-64
2024/04/05 03:51:28;;;;;;;;;;;;;;;;;;5099157;28;19921;-65
2024/04/05 03:53:54;;;;;;;;;;;;;;;;;;5093170;28;20317;-65
2024/04/05 03:56:20;;;;;;;;;;;;;;;;;;5102280;28;19912;-64
2024/04/05 03:58:45;;;;;;;;;;;;;;;;;;5096683;28;20382;-65
2024/04/05 04:01:11;;;;;;;;;;;;;;;;;;5093946;28;19920;-61
2024/04/05 04:03:37;;;;;;;;;;;;;;;;;;5095281;28;19916;-65
2024/04/05 04:06:04;;;;;;;;;;;;;;;;;;5088907;28;19924;-66
2024/04/05 04:08:30;;;;;;;;;;;;;;;;;;5088048;28;19927;-66
2024/04/05 04:10:56;;;;;;;;;;;;;;;;;;5084968;28;19908;-66
2024/04/05 04:13:25;;;;;;;;;;;;;;;;;;5088388;28;19961;-67
2024/04/05 04:15:51;;;;;;;;;;;;;;;;;;5088459;28;19912;-63
2024/04/05 04:18:17;;;;;;;;;;;;;;;;;;5090651;28;19965;-66
2024/04/05 04:20:43;;;;;;;;;;;;;;;;;;5091073;28;19927;-66
2024/04/05 04:23:09;;;;;;;;;;;;;;;;;;5084308;28;20393;-64
2024/04/05 04:25:35;;;;;;;;;;;;;;;;;;5088451;28;19908;-66
2024/04/05 04:28:01;;;;;;;;;;;;;;;;;;5091968;28;20390;-66
2024/04/05 04:30:29;;;;;;;;;;;;;;;;;;5094728;28;19912;-66
2024/04/05 04:32:55;;;;;;;;;;;;;;;;;;5091414;28;19947;-66
2024/04/05 04:35:21;;;;;;;;;;;;;;;;;;5091613;28;19912;-65
2024/04/05 04:37:47;;;;;;;;;;;;;;;;;;5088554;28;19916;-65
2024/04/05 04:40:12;;;;;;;;;;;;;;;;;;5088495;28;20298;-66
2024/04/05 04:42:38;;;;;;;;;;;;;;;;;;5089640;28;19996;-65
2024/04/05 04:45:05;;;;;;;;;;;;;;;;;;5091303;28;20235;-65
2024/04/05 04:47:31;;;;;;;;;;;;;;;;;;5088479;28;20082;-65
2024/04/05 04:49:58;;;;;;;;;;;;;;;;;;5089247;28;20413;-65
2024/04/05 04:52:24;;;;;;;;;;;;;;;;;;5096287;28;19908;-66
2024/04/05 04:54:50;;;;;;;;;;;;;;;;;;5092984;28;19984;-63
2024/04/05 04:57:16;;;;;;;;;;;;;;;;;;5098824;28;19923;-63
2024/04/05 04:59:42;;;;;;;;;;;;;;;;;;5096944;28;20385;-66
2024/04/05 05:02:08;;;;;;;;;;;;;;;;;;5096836;28;20393;-66
2024/04/05 05:04:34;;;;;;;;;;;;;;;;;;5088800;28;19937;-66
2024/04/05 05:07:01;;;;;;;;;;;;;;;;;;5091697;28;19916;-65
2024/04/05 05:09:26;;;;;;;;;;;;;;;;;;5096900;28;19916;-66
2024/04/05 05:11:52;;;;;;;;;;;;;;;;;;5086873;28;20010;-66
2024/04/05 05:14:18;;;;;;;;;;;;;;;;;;5098429;28;19912;-65
2024/04/05 05:16:44;;;;;;;;;;;;;;;;;;5095625;28;19912;-66
2024/04/05 05:19:10;;;;;;;;;;;;;;;;;;5094507;28;19920;-66
2024/04/05 05:21:36;;;;;;;;;;;;;;;;;;5088956;28;19912;-67
2024/04/05 05:24:02;;;;;;;;;;;;;;;;;;5091003;28;19965;-66
2024/04/05 05:26:28;;;;;;;;;;;;;;;;;;5085388;28;19916;-66
2024/04/05 05:28:54;;;;;;;;;;;;;;;;;;5090802;28;20234;-66
2024/04/05 05:31:19;;;;;;;;;;;;;;;;;;5090021;28;20378;-65
2024/04/05 05:33:45;;;;;;;;;;;;;;;;;;5090231;28;19916;-66
2024/04/05 05:36:11;;;;;;;;;;;;;;;;;;5090255;28;20382;-66
2024/04/05 05:38:38;;;;;;;;;;;;;;;;;;5083864;28;19922;-66
2024/04/05 05:41:03;;;;;;;;;;;;;;;;;;5090793;28;19927;-66
2024/04/05 05:43:29;;;;;;;;;;;;;;;;;;5090428;28;19970;-66
2024/04/05 05:45:55;;;;;;;;;;;;;;;;;;5088070;28;19908;-67
2024/04/05 05:48:21;;;;;;;;;;;;;;;;;;5090944;28;19909;-66
2024/04/05 05:50:47;;;;;;;;;;;;;;;;;;5090874;28;20386;-65
2024/04/05 05:53:13;;;;;;;;;;;;;;;;;;5085166;28;19912;-65
2024/04/05 05:55:38;;;;;;;;;;;;;;;;;;5090802;28;19909;-65
2024/04/05 05:58:04;;;;;;;;;;;;;;;;;;5091140;28;19915;-65
2024/04/05 06:00:30;;;;;;;;;;;;;;;;;;5090512;28;20400;-64
2024/04/05 06:02:59;;;;;;;;;;;;;;;;;;5090837;28;19969;-66
2024/04/05 06:05:25;;;;;;;;;;;;;;;;;;5085526;28;19968;-66
2024/04/05 06:07:51;;;;;;;;;;;;;;;;;;5086712;28;19912;-65
2024/04/05 06:10:16;;;;;;;;;;;;;;;;;;5083856;28;20013;-64
2024/04/05 06:12:42;;;;;;;;;;;;;;;;;;5086425;28;19923;-65
2024/04/05 06:15:08;;;;;;;;;;;;;;;;;;5088079;28;19999;-65
2024/04/05 06:17:35;;;;;;;;;;;;;;;;;;5084523;28;19912;-66
2024/04/05 06:20:01;;;;;;;;;;;;;;;;;;5091763;28;19912;-66
2024/04/05 06:22:27;;;;;;;;;;;;;;;;;;5093868;28;20000;-66
2024/04/05 06:24:53;;;;;;;;;;;;;;;;;;5083614;28;20271;-67
2024/04/05 06:27:19;;;;;;;;;;;;;;;;;;5089263;28;19952;-65
2024/04/05 06:29:44;;;;;;;;;;;;;;;;;;5093765;28;20356;-65
2024/04/05 06:32:10;;;;;;;;;;;;;;;;;;5091766;28;19999;-65
2024/04/05 06:34:36;;;;;;;;;;;;;;;;;;5089792;28;20424;-65
2024/04/05 06:37:02;;;;;;;;;;;;;;;;;;5084967;28;19938;-65
2024/04/05 06:39:28;;;;;;;;;;;;;;;;;;5090321;28;19915;-66
2024/04/05 06:41:54;;;;;;;;;;;;;;;;;;5091773;28;19913;-66
2024/04/05 06:44:20;;;;;;;;;;;;;;;;;;5091519;28;20403;-65
2024/04/05 06:46:45;;;;;;;;;;;;;;;;;;5090970;28;19912;-66
2024/04/05 06:49:14;;;;;;;;;;;;;;;;;;5092862;28;19908;-65
2024/04/05 06:51:40;;;;;;;;;;;;;;;;;;5089804;28;19919;-65
2024/04/05 06:54:06;;;;;;;;;;;;;;;;;;5092596;28;19908;-65
2024/04/05 06:56:31;;;;;;;;;;;;;;;;;;5089615;28;19912;-66
2024/04/05 06:58:58;;;;;;;;;;;;;;;;;;5090842;28;19927;-66
2024/04/05 07:01:23;;;;;;;;;;;;;;;;;;5090115;28;19912;-66
2024/04/05 07:03:49;;;;;;;;;;;;;;;;;;5091738;28;20327;-66
2024/04/05 07:06:15;;;;;;;;;;;;;;;;;;5090864;28;19919;-66
2024/04/05 07:08:41;;;;;;;;;;;;;;;;;;5088637;28;19912;-65
2024/04/05 07:11:09;;;;;;;;;;;;;;;;;;5091647;28;19919;-65
2024/04/05 07:13:35;;;;;;;;;;;;;;;;;;5090189;28;19951;-66
2024/04/05 07:16:01;;;;;;;;;;;;;;;;;;5091858;28;20390;-65
2024/04/05 07:18:27;;;;;;;;;;;;;;;;;;5092233;28;19951;-65
2024/04/05 07:20:54;;;;;;;;;;;;;;;;;;5093236;28;20328;-65
2024/04/05 07:23:20;;;;;;;;;;;;;;;;;;5091849;28;19916;-65
2024/04/05 07:25:46;;;;;;;;;;;;;;;;;;5093149;28;19961;-64
2024/04/05 07:28:12;;;;;;;;;;;;;;;;;;5092592;28;19912;-66
2024/04/05 07:30:38;;;;;;;;;;;;;;;;;;5084466;28;19918;-65
2024/04/05 07:33:03;;;;;;;;;;;;;;;;;;5091296;28;20302;-63
2024/04/05 07:35:29;;;;;;;;;;;;;;;;;;5088953;28;19922;-63
2024/04/05 07:37:55;;;;;;;;;;;;;;;;;;5093241;28;19915;-63
2024/04/05 07:40:21;;;;;;;;;;;;;;;;;;5093526;28;19934;-63
2024/04/05 07:42:47;;;;;;;;;;;;;;;;;;5089961;28;20003;-65
2024/04/05 07:45:13;;;;;;;;;;;;;;;;;;5092856;28;20262;-65
2024/04/05 07:47:39;;;;;;;;;;;;;;;;;;5092828;28;20003;-66
2024/04/05 07:50:05;;;;;;;;;;;;;;;;;;5093639;28;19915;-66
2024/04/05 07:52:30;;;;;;;;;;;;;;;;;;5092544;28;20400;-64
2024/04/05 07:54:56;;;;;;;;;;;;;;;;;;5092921;28;19977;-63
2024/04/05 07:57:22;;;;;;;;;;;;;;;;;;5094428;28;20259;-65
2024/04/05 07:59:48;;;;;;;;;;;;;;;;;;5092579;28;19923;-65
2024/04/05 08:02:14;;;;;;;;;;;;;;;;;;5092441;28;19955;-64
2024/04/05 08:04:40;;;;;;;;;;;;;;;;;;5093155;28;19950;-64
2024/04/05 08:07:06;;;;;;;;;;;;;;;;;;5090926;28;19974;-63
2024/04/05 08:09:32;;;;;;;;;;;;;;;;;;5092115;28;20193;-66
2024/04/05 08:11:58;;;;;;;;;;;;;;;;;;5092020;28;20286;-63
2024/04/05 08:14:24;;;;;;;;;;;;;;;;;;5091166;28;19908;-63
2024/04/05 08:16:49;;;;;;;;;;;;;;;;;;5090146;28;20289;-63
2024/04/05 08:19:15;;;;;;;;;;;;;;;;;;5090745;28;20003;-64
2024/04/05 08:21:41;;;;;;;;;;;;;;;;;;5092953;28;19931;-64
2024/04/05 08:24:07;;;;;;;;;;;;;;;;;;5089791;28;19927;-66
2024/04/05 08:26:34;;;;;;;;;;;;;;;;;;5092409;28;19909;-64
2024/04/05 08:28:59;;;;;;;;;;;;;;;;;;5094274;28;19927;-64
2024/04/05 08:31:25;;;;;;;;;;;;;;;;;;5094540;28;19908;-65
2024/04/05 08:33:51;;;;;;;;;;;;;;;;;;5094306;28;19915;-66
2024/04/05 08:36:17;;;;;;;;;;;;;;;;;;5094048;28;19927;-67
2024/04/05 08:38:45;;;;;;;;;;;;;;;;;;5093699;28;19908;-66
2024/04/05 08:41:11;;;;;;;;;;;;;;;;;;5091579;28;20406;-66
2024/04/05 08:43:37;;;;;;;;;;;;;;;;;;5093683;28;19959;-64
2024/04/05 08:46:03;;;;;;;;;;;;;;;;;;5093048;28;20382;-66
2024/04/05 08:48:29;;;;;;;;;;;;;;;;;;5093592;28;19998;-65
2024/04/05 08:50:54;;;;;;;;;;;;;;;;;;5098779;28;19915;-66
2024/04/05 08:53:20;;;;;;;;;;;;;;;;;;5103793;28;19993;-66
2024/04/05 08:55:46;;;;;;;;;;;;;;;;;;5104249;28;20397;-65
2024/04/05 08:58:13;;;;;;;;;;;;;;;;;;5100929;28;19912;-64
2024/04/05 09:00:39;;;;;;;;;;;;;;;;;;5100094;28;19909;-66
2024/04/05 09:03:05;;;;;;;;;;;;;;;;;;5090714;28;19960;-65
2024/04/05 09:05:32;;;;;;;;;;;;;;;;;;5089051;28;19911;-66
2024/04/05 09:07:58;;;;;;;;;;;;;;;;;;5090181;28;19908;-65
2024/04/05 09:10:24;;;;;;;;;;;;;;;;;;5090975;28;19908;-66
2024/04/05 09:12:50;;;;;;;;;;;;;;;;;;5088186;28;19951;-67
2024/04/05 09:15:16;;;;;;;;;;;;;;;;;;5086088;28;19912;-66
2024/04/05 09:17:42;;;;;;;;;;;;;;;;;;5090942;28;19912;-66
2024/04/05 09:20:16;;;;;;;;;;;;;;;;;;5091325;28;19934;-66
2024/04/05 09:22:43;;;;;;;;;;;;;;;;;;5090628;28;19908;-66
2024/04/05 09:25:09;;;;;;;;;;;;;;;;;;5091329;28;19908;-65
2024/04/05 09:27:35;;;;;;;;;;;;;;;;;;5090885;28;19909;-65
2024/04/05 09:30:01;;;;;;;;;;;;;;;;;;5089377;28;19923;-66
2024/04/05 09:32:28;;;;;;;;;;;;;;;;;;5090393;28;20471;-65
2024/04/05 09:34:54;;;;;;;;;;;;;;;;;;5085852;28;19987;-66
2024/04/05 09:37:21;;;;;;;;;;;;;;;;;;5091585;28;19918;-65
2024/04/05 09:39:47;;;;;;;;;;;;;;;;;;5091614;28;20597;-66
2024/04/05 09:42:13;;;;;;;;;;;;;;;;;;5091446;28;19951;-65
2024/04/05 09:44:41;;;;;;;;;;;;;;;;;;5091105;28;20298;-65
2024/04/05 09:47:08;;;;;;;;;;;;;;;;;;5083587;28;19917;-66
2024/04/05 09:49:34;;;;;;;;;;;;;;;;;;5091104;28;19908;-65
2024/04/05 09:52:00;;;;;;;;;;;;;;;;;;5091621;28;19908;-66
2024/04/05 09:54:26;;;;;;;;;;;;;;;;;;5095366;28;19915;-66
2024/04/05 09:56:51;;;;;;;;;;;;;;;;;;5095221;28;19982;-65
2024/04/05 09:59:17;;;;;;;;;;;;;;;;;;5095477;28;20347;-66
2024/04/05 10:01:46;;;;;;;;;;;;;;;;;;5094909;28;19908;-66
2024/04/05 10:04:11;;;;;;;;;;;;;;;;;;5093089;28;19919;-64
2024/04/05 10:06:42;;;;;;;;;;;;;;;;;;5091987;28;19908;-64
2024/04/05 10:09:08;;;;;;;;;;;;;;;;;;5079583;28;20054;-65
2024/04/05 10:11:34;;;;;;;;;;;;;;;;;;5094974;28;19940;-64
2024/04/05 10:14:00;;;;;;;;;;;;;;;;;;5094968;28;19908;-65
2024/04/05 10:16:26;;;;;;;;;;;;;;;;;;5094957;28;19999;-65
2024/04/05 10:18:52;;;;;;;;;;;;;;;;;;5095368;28;19959;-64
2024/04/05 10:21:18;;;;;;;;;;;;;;;;;;5107731;28;19912;-65
2024/04/05 10:23:44;;;;;;;;;;;;;;;;;;5112933;28;19999;-65
2024/04/05 10:26:13;;;;;;;;;;;;;;;;;;5097334;28;19908;-66
2024/04/05 10:28:39;;;;;;;;;;;;;;;;;;5097388;28;20327;-66
2024/04/05 10:31:06;;;;;;;;;;;;;;;;;;5102372;28;19961;-66
2024/04/05 10:33:31;;;;;;;;;;;;;;;;;;5111040;28;19908;-64
2024/04/05 10:35:58;;;;;;;;;;;;;;;;;;5091193;28;19989;-65
2024/04/05 10:38:24;;;;;;;;;;;;;;;;;;5094387;28;19919;-64
2024/04/05 10:40:49;;;;;;;;;;;;;;;;;;5085858;28;19908;-65
2024/04/05 10:43:16;;;;;;;;;;;;;;;;;;5079673;28;19931;-65
2024/04/05 10:45:42;;;;;;;;;;;;;;;;;;5092307;28;19920;-64
2024/04/05 10:48:07;;;;;;;;;;;;;;;;;;5094178;28;20075;-65
2024/04/05 10:50:34;;;;;;;;;;;;;;;;;;5085759;28;19923;-65
2024/04/05 10:53:00;;;;;;;;;;;;;;;;;;5087628;28;19939;-65
2024/04/05 10:55:26;;;;;;;;;;;;;;;;;;5094111;28;20271;-64
2024/04/05 10:57:52;;;;;;;;;;;;;;;;;;5093619;28;19920;-65
2024/04/05 11:00:19;;;;;;;;;;;;;;;;;;5093867;28;19912;-65
2024/04/05 11:02:44;;;;;;;;;;;;;;;;;;5093605;28;19912;-66
2024/04/05 11:05:12;;;;;;;;;;;;;;;;;;5087647;28;19908;-64
2024/04/05 11:07:38;;;;;;;;;;;;;;;;;;5090006;28;20010;-65
2024/04/05 11:10:05;;;;;;;;;;;;;;;;;;5083380;28;19956;-65
2024/04/05 11:12:31;;;;;;;;;;;;;;;;;;5093623;28;19973;-66
2024/04/05 11:14:56;;;;;;;;;;;;;;;;;;5090277;28;20386;-65
2024/04/05 11:17:22;;;;;;;;;;;;;;;;;;5089238;28;20006;-64
2024/04/05 11:19:48;;;;;;;;;;;;;;;;;;5093462;28;19916;-65
2024/04/05 11:22:15;;;;;;;;;;;;;;;;;;5093034;28;20427;-64
2024/04/05 11:24:41;;;;;;;;;;;;;;;;;;5084075;28;19913;-65
2024/04/05 11:27:07;;;;;;;;;;;;;;;;;;5093280;28;20397;-65
2024/04/05 11:29:33;;;;;;;;;;;;;;;;;;5087831;28;19919;-64
2024/04/05 11:31:59;;;;;;;;;;;;;;;;;;5082209;28;19908;-65
2024/04/05 11:34:26;;;;;;;;;;;;;;;;;;5088614;28;20061;-66
2024/04/05 11:36:52;;;;;;;;;;;;;;;;;;5084955;28;19916;-65
2024/04/05 11:39:17;;;;;;;;;;;;;;;;;;5079745;28;20041;-64
2024/04/05 11:41:43;;;;;;;;;;;;;;;;;;5089283;28;19912;-65
2024/04/05 11:44:10;;;;;;;;;;;;;;;;;;5093247;28;20037;-65
2024/04/05 11:46:38;;;;;;;;;;;;;;;;;;5093168;28;19919;-64
2024/04/05 11:49:03;;;;;;;;;;;;;;;;;;5092991;28;19919;-64
2024/04/05 11:51:29;;;;;;;;;;;;;;;;;;5085224;28;19908;-65
2024/04/05 11:53:55;;;;;;;;;;;;;;;;;;5092795;28;19955;-65
2024/04/05 11:56:21;;;;;;;;;;;;;;;;;;5092179;28;19965;-64
2024/04/05 11:58:47;;;;;;;;;;;;;;;;;;5092374;28;19919;-65
2024/04/05 12:01:13;;;;;;;;;;;;;;;;;;5092629;28;20439;-64
2024/04/05 12:03:39;;;;;;;;;;;;;;;;;;5092803;28;19908;-66
2024/04/05 12:06:05;;;;;;;;;;;;;;;;;;5092891;28;19909;-65
2024/04/05 12:08:31;;;;;;;;;;;;;;;;;;5092640;28;19919;-65
2024/04/05 12:10:57;;;;;;;;;;;;;;;;;;5092594;28;20175;-65
2024/04/05 12:13:23;;;;;;;;;;;;;;;;;;5085491;28;19913;-65
2024/04/05 12:15:49;;;;;;;;;;;;;;;;;;5090864;28;19925;-65
2024/04/05 12:18:15;;;;;;;;;;;;;;;;;;5092551;28;19912;-64
2024/04/05 12:20:40;;;;;;;;;;;;;;;;;;5092543;28;19912;-65
2024/04/05 12:23:06;;;;;;;;;;;;;;;;;;5092314;28;19912;-65
2024/04/05 12:25:32;;;;;;;;;;;;;;;;;;5092313;28;20002;-65
2024/04/05 12:27:58;;;;;;;;;;;;;;;;;;5081106;28;20378;-65
2024/04/05 12:30:24;;;;;;;;;;;;;;;;;;5083605;28;19995;-66
2024/04/05 12:32:50;;;;;;;;;;;;;;;;;;5091946;28;19912;-65
2024/04/05 12:35:16;;;;;;;;;;;;;;;;;;5085238;28;19919;-64
2024/04/05 12:37:43;;;;;;;;;;;;;;;;;;5091816;28;19912;-64
2024/04/05 12:40:17;;;;;;;;;;;;;;;;;;5085926;28;20294;-66
2024/04/05 12:42:43;;;;;;;;;;;;;;;;;;5082974;28;20397;-63
2024/04/05 12:45:09;;;;;;;;;;;;;;;;;;5085693;28;19909;-63
2024/04/05 12:47:35;;;;;;;;;;;;;;;;;;5078014;28;20607;-66
2024/04/05 12:50:02;;;;;;;;;;;;;;;;;;5091998;28;19919;-65
2024/04/05 12:52:28;;;;;;;;;;;;;;;;;;5091976;28;19961;-64
2024/04/05 12:54:54;;;;;;;;;;;;;;;;;;5092184;28;20395;-67
2024/04/05 12:57:23;;;;;;;;;;;;;;;;;;5092129;28;19919;-66
2024/04/05 12:59:49;;;;;;;;;;;;;;;;;;5092097;28;19909;-66
2024/04/05 13:02:15;;;;;;;;;;;;;;;;;;5091284;28;19991;-66
2024/04/05 13:04:41;;;;;;;;;;;;;;;;;;5088024;28;19920;-65
2024/04/05 13:07:06;;;;;;;;;;;;;;;;;;5091978;28;19953;-65
2024/04/05 13:09:32;;;;;;;;;;;;;;;;;;5091841;28;19908;-65
2024/04/05 13:12:01;;;;;;;;;;;;;;;;;;5091709;28;19908;-65
2024/04/05 13:14:26;;;;;;;;;;;;;;;;;;5091373;28;20367;-64
2024/04/05 13:16:55;;;;;;;;;;;;;;;;;;5091697;28;19912;-64
2024/04/05 13:19:20;;;;;;;;;;;;;;;;;;5088691;28;19912;-62
2024/04/05 13:21:46;;;;;;;;;;;;;;;;;;5091464;28;19930;-65
2024/04/05 13:24:13;;;;;;;;;;;;;;;;;;5091600;28;19999;-64
2024/04/05 13:26:39;;;;;;;;;;;;;;;;;;5091357;28;19912;-65
2024/04/05 13:29:04;;;;;;;;;;;;;;;;;;5091627;28;19915;-65
2024/04/05 13:31:30;;;;;;;;;;;;;;;;;;5094137;28;20362;-63
2024/04/05 13:33:56;;;;;;;;;;;;;;;;;;5106226;28;19916;-64
2024/04/05 13:36:22;;;;;;;;;;;;;;;;;;5104995;28;19938;-64
2024/04/05 13:38:51;;;;;;;;;;;;;;;;;;5104700;28;22299;-64
2024/04/05 13:41:17;;;;;;;;;;;;;;;;;;5107268;28;19907;-64
2024/04/05 13:43:42;;;;;;;;;;;;;;;;;;5105508;28;19929;-65
2024/04/05 13:46:08;;;;;;;;;;;;;;;;;;5107343;28;19915;-65
2024/04/05 13:48:34;;;;;;;;;;;;;;;;;;5106741;28;19907;-63
2024/04/05 13:51:00;;;;;;;;;;;;;;;;;;5102997;28;20423;-64
2024/04/05 13:53:28;;;;;;;;;;;;;;;;;;5107008;28;19908;-64
2024/04/05 13:55:54;;;;;;;;;;;;;;;;;;5104871;28;19943;-65
2024/04/05 13:58:20;;;;;;;;;;;;;;;;;;5101696;28;19999;-65
2024/04/05 14:00:46;;;;;;;;;;;;;;;;;;5104560;28;19970;-63
2024/04/05 14:03:12;;;;;;;;;;;;;;;;;;5106577;28;19908;-64
2024/04/05 14:05:38;;;;;;;;;;;;;;;;;;5105712;28;20002;-66
2024/04/05 14:08:04;;;;;;;;;;;;;;;;;;5103312;28;20275;-64
2024/04/05 14:10:30;;;;;;;;;;;;;;;;;;5106490;28;19915;-63
2024/04/05 14:12:56;;;;;;;;;;;;;;;;;;5104343;28;19908;-65
2024/04/05 14:15:22;;;;;;;;;;;;;;;;;;5105818;28;19908;-64
2024/04/05 14:17:47;;;;;;;;;;;;;;;;;;5115158;28;19922;-62
2024/04/05 14:20:14;;;;;;;;;;;;;;;;;;5117883;28;19929;-65
2024/04/05 14:22:41;;;;;;;;;;;;;;;;;;5114999;28;19929;-64
2024/04/05 14:25:08;;;;;;;;;;;;;;;;;;5110466;28;19908;-64
2024/04/05 14:27:34;;;;;;;;;;;;;;;;;;5091484;28;20403;-64
2024/04/05 14:29:59;;;;;;;;;;;;;;;;;;5097406;28;20006;-65
2024/04/05 14:32:26;;;;;;;;;;;;;;;;;;5104760;28;19995;-65
2024/04/05 14:34:52;;;;;;;;;;;;;;;;;;5103362;28;19915;-65
2024/04/05 14:37:18;;;;;;;;;;;;;;;;;;5105903;28;19923;-65
2024/04/05 14:39:44;;;;;;;;;;;;;;;;;;5097884;28;19913;-64
2024/04/05 14:42:10;;;;;;;;;;;;;;;;;;5108860;28;19908;-65
2024/04/05 14:44:36;;;;;;;;;;;;;;;;;;5108939;27;19914;-65
2024/04/05 14:47:02;;;;;;;;;;;;;;;;;;5107759;28;19912;-64
2024/04/05 14:49:28;;;;;;;;;;;;;;;;;;5108391;28;20270;-66
2024/04/05 14:51:55;;;;;;;;;;;;;;;;;;5094346;28;19912;-65
2024/04/05 14:54:21;;;;;;;;;;;;;;;;;;5094392;28;19915;-66
2024/04/05 14:56:48;;;;;;;;;;;;;;;;;;5091257;28;19963;-64
2024/04/05 14:59:14;;;;;;;;;;;;;;;;;;5094386;28;20362;-65
2024/04/05 15:01:40;;;;;;;;;;;;;;;;;;5094025;28;19909;-64
2024/04/05 15:04:06;;;;;;;;;;;;;;;;;;5094231;28;19908;-66
2024/04/05 15:06:32;;;;;;;;;;;;;;;;;;5094234;28;19912;-65
2024/04/05 15:08:58;;;;;;;;;;;;;;;;;;5094373;28;20297;-64
2024/04/05 15:11:23;;;;;;;;;;;;;;;;;;5093145;28;19980;-64
2024/04/05 15:13:49;;;;;;;;;;;;;;;;;;5093297;28;19912;-63
2024/04/05 15:16:15;;;;;;;;;;;;;;;;;;5093946;28;19912;-64
2024/04/05 15:18:41;;;;;;;;;;;;;;;;;;5093965;28;19962;-65
2024/04/05 15:21:07;;;;;;;;;;;;;;;;;;5094184;28;19916;-63
2024/04/05 15:23:33;;;;;;;;;;;;;;;;;;5093174;28;19908;-64
2024/04/05 15:25:59;;;;;;;;;;;;;;;;;;5094106;28;19944;-64
2024/04/05 15:28:25;;;;;;;;;;;;;;;;;;5092249;28;19913;-64
2024/04/05 15:30:51;;;;;;;;;;;;;;;;;;5093713;28;19948;-64
2024/04/05 15:33:17;;;;;;;;;;;;;;;;;;5094076;28;20401;-65
2024/04/05 15:35:43;;;;;;;;;;;;;;;;;;5093568;28;19916;-65
2024/04/05 15:38:09;;;;;;;;;;;;;;;;;;5093529;28;20006;-65
2024/04/05 15:40:34;;;;;;;;;;;;;;;;;;5091636;28;19908;-64
2024/04/05 15:43:00;;;;;;;;;;;;;;;;;;5102604;28;19950;-65
2024/04/05 15:45:26;;;;;;;;;;;;;;;;;;5100686;28;19962;-64
2024/04/05 15:47:52;;;;;;;;;;;;;;;;;;5103816;28;19909;-64
2024/04/05 15:50:18;;;;;;;;;;;;;;;;;;5099260;28;19912;-63
2024/04/05 15:52:44;;;;;;;;;;;;;;;;;;5092498;28;20011;-65
2024/04/05 15:55:10;;;;;;;;;;;;;;;;;;5100091;28;20269;-64
2024/04/05 15:57:35;;;;;;;;;;;;;;;;;;5104461;28;20381;-65
2024/04/05 16:00:01;;;;;;;;;;;;;;;;;;5103884;28;19908;-64
2024/04/05 16:02:27;;;;;;;;;;;;;;;;;;5101935;28;19918;-64
2024/04/05 16:04:53;;;;;;;;;;;;;;;;;;5098382;28;20329;-65
2024/04/05 16:07:19;;;;;;;;;;;;;;;;;;5115969;28;19915;-65
2024/04/05 16:09:45;;;;;;;;;;;;;;;;;;5103889;28;19942;-65
2024/04/05 16:12:11;;;;;;;;;;;;;;;;;;5104737;28;19908;-64
2024/04/05 16:14:37;;;;;;;;;;;;;;;;;;5104762;28;19952;-63
2024/04/05 16:17:03;;;;;;;;;;;;;;;;;;5102163;28;19923;-64
2024/04/05 16:19:29;;;;;;;;;;;;;;;;;;5105659;28;19928;-65
2024/04/05 16:21:55;;;;;;;;;;;;;;;;;;5101772;28;20389;-65
2024/04/05 16:24:21;;;;;;;;;;;;;;;;;;5105346;28;19915;-64
2024/04/05 16:26:49;;;;;;;;;;;;;;;;;;5103018;28;19943;-64
2024/04/05 16:29:14;;;;;;;;;;;;;;;;;;5104129;28;20365;-64
2024/04/05 16:31:40;;;;;;;;;;;;;;;;;;5102516;28;19919;-65
2024/04/05 16:34:06;;;;;;;;;;;;;;;;;;5102837;28;20382;-65
2024/04/05 16:36:32;;;;;;;;;;;;;;;;;;5104473;28;19916;-65